Time;durP1;ratioP1;P1;durP2;ratioP2;P2;SDS_P1;SDS_P2;PMS_P1;PMS_P2;Temp;Humidity;BMP_temperature;BMP_pressure;BME280_temperature;BME280_humidity;BME280_pressure;Samples;Min_cycle;Max_cycle;Signal;HPM_P1;HPM_P2
2021/07/25 00:01:46;;;;;;;16.80;13.53;;;20.90;83.70;;;;;;5024761;28;20270;-83
2021/07/25 00:04:15;;;;;;;15.10;13.17;;;20.90;83.70;;;;;;5018968;28;20198;-82
2021/07/25 00:06:43;;;;;;;18.83;13.83;;;20.80;83.70;;;;;;5023310;28;20519;-84
2021/07/25 00:09:12;;;;;;;17.37;13.90;;;20.80;83.70;;;;;;5017902;28;20249;-83
2021/07/25 00:11:41;;;;;;;15.00;13.40;;;20.80;83.60;;;;;;5018420;28;20204;-86
2021/07/25 00:14:09;;;;;;;17.53;13.17;;;20.90;83.60;;;;;;5007071;28;20203;-83
2021/07/25 00:16:38;;;;;;;14.47;12.93;;;20.90;83.40;;;;;;5007422;28;20239;-85
2021/07/25 00:19:12;;;;;;;17.13;13.30;;;21.00;83.40;;;;;;5010130;28;20325;-84
2021/07/25 00:21:41;;;;;;;15.30;13.27;;;21.00;83.50;;;;;;5015643;28;20211;-83
2021/07/25 00:24:10;;;;;;;14.37;12.63;;;21.00;83.60;;;;;;5020603;28;20195;-83
2021/07/25 00:26:45;;;;;;;13.87;12.33;;;20.90;83.50;;;;;;5017728;28;21010;-85
2021/07/25 00:29:14;;;;;;;13.73;12.33;;;20.90;83.70;;;;;;5008973;28;20196;-84
2021/07/25 00:31:43;;;;;;;15.67;12.67;;;20.90;83.60;;;;;;5011886;28;20207;-82
2021/07/25 00:34:13;;;;;;;15.90;12.37;;;20.80;83.40;;;;;;5006016;28;20199;-81
2021/07/25 00:36:42;;;;;;;16.27;12.87;;;20.90;83.40;;;;;;5007857;28;20231;-81
2021/07/25 00:39:11;;;;;;;15.70;12.37;;;20.80;83.30;;;;;;5008410;28;20503;-86
2021/07/25 00:41:40;;;;;;;16.43;12.77;;;20.80;83.40;;;;;;5012780;28;20209;-81
2021/07/25 00:44:09;;;;;;;16.53;12.90;;;20.80;83.30;;;;;;5015502;28;20217;-83
2021/07/25 00:46:37;;;;;;;15.50;12.40;;;20.80;83.40;;;;;;5033537;28;20443;-83
2021/07/25 00:49:06;;;;;;;14.90;12.00;;;20.80;83.40;;;;;;5021923;28;20222;-83
2021/07/25 00:51:36;;;;;;;13.23;11.83;;;20.70;83.50;;;;;;5023964;28;20199;-79
2021/07/25 00:54:05;;;;;;;13.67;12.10;;;20.70;83.50;;;;;;5038267;28;20213;-81
2021/07/25 00:56:34;;;;;;;16.73;13.10;;;20.70;83.60;;;;;;5038012;28;20242;-84
2021/07/25 00:59:03;;;;;;;16.90;12.97;;;20.60;83.60;;;;;;5039906;28;20436;-80
2021/07/25 01:01:31;;;;;;;16.07;13.33;;;20.60;83.70;;;;;;5011071;28;20199;-83
2021/07/25 01:04:17;;;;;;;17.70;13.43;;;20.60;83.80;;;;;;5013035;28;20195;-82
2021/07/25 01:07:02;;;;;;;15.57;12.90;;;20.50;83.80;;;;;;5015575;28;20202;-83
2021/07/25 01:09:42;;;;;;;16.97;13.73;;;20.40;83.70;;;;;;5011803;28;21217;-83
2021/07/25 01:12:18;;;;;;;14.93;12.23;;;20.40;83.70;;;;;;5008570;28;20203;-85
2021/07/25 01:14:49;;;;;;;14.70;12.73;;;20.40;83.80;;;;;;5011423;28;20226;-83
2021/07/25 01:17:30;;;;;;;13.63;12.20;;;20.40;83.80;;;;;;5009461;28;21093;-83
2021/07/25 01:20:01;;;;;;;14.63;11.90;;;20.40;83.80;;;;;;5009731;28;20200;-83
2021/07/25 01:22:32;;;;;;;15.77;13.00;;;20.30;83.90;;;;;;5013398;28;20198;-82
2021/07/25 01:25:01;;;;;;;15.23;13.63;;;20.30;83.90;;;;;;5017297;28;20199;-83
2021/07/25 01:27:35;;;;;;;15.07;12.83;;;20.30;83.90;;;;;;5006290;28;20242;-82
2021/07/25 01:30:07;;;;;;;13.30;11.73;;;20.20;84.00;;;;;;5013351;28;20203;-83
2021/07/25 01:32:38;;;;;;;15.43;12.50;;;20.20;84.10;;;;;;5021733;28;20193;-86
2021/07/25 01:35:11;;;;;;;14.43;12.70;;;20.10;84.30;;;;;;5017596;28;20276;-82
2021/07/25 01:37:41;;;;;;;14.80;13.03;;;20.00;84.30;;;;;;5004833;28;20231;-83
2021/07/25 01:40:15;;;;;;;15.17;13.17;;;20.00;84.40;;;;;;5009419;28;20365;-84
2021/07/25 01:42:44;;;;;;;18.63;12.73;;;19.90;84.50;;;;;;5012343;28;21267;-83
2021/07/25 01:45:14;;;;;;;17.77;13.07;;;19.90;84.70;;;;;;5014232;28;20199;-84
2021/07/25 01:47:42;;;;;;;17.70;12.83;;;19.80;84.70;;;;;;5017710;28;20207;-82
2021/07/25 01:50:15;;;;;;;14.97;12.43;;;19.80;84.70;;;;;;5027842;28;20211;-81
2021/07/25 01:52:44;;;;;;;15.90;12.57;;;19.80;84.80;;;;;;5036580;28;20895;-85
2021/07/25 01:55:14;;;;;;;15.03;12.40;;;19.70;85.00;;;;;;5019907;28;20198;-85
2021/07/25 01:57:44;;;;;;;15.03;13.43;;;19.70;85.20;;;;;;5011196;28;20652;-83
2021/07/25 02:00:13;;;;;;;16.83;13.33;;;19.60;85.30;;;;;;5027201;28;20200;-85
2021/07/25 02:02:42;;;;;;;15.57;13.87;;;19.50;85.40;;;;;;5027521;28;20409;-84
2021/07/25 02:05:13;;;;;;;16.33;13.53;;;19.50;85.60;;;;;;5016239;28;20221;-82
2021/07/25 02:07:41;;;;;;;14.87;13.37;;;19.30;85.80;;;;;;5010819;28;20223;-82
2021/07/25 02:10:11;;;;;;;16.13;13.63;;;19.20;86.20;;;;;;5005586;28;20215;-82
2021/07/25 02:12:40;;;;;;;17.97;14.17;;;19.10;86.30;;;;;;5013225;28;21014;-87
2021/07/25 02:15:09;;;;;;;15.70;13.63;;;19.00;86.60;;;;;;5016858;28;20218;-82
2021/07/25 02:17:38;;;;;;;16.53;13.73;;;19.00;86.60;;;;;;5016739;28;20220;-82
2021/07/25 02:20:07;;;;;;;16.27;13.57;;;19.00;86.80;;;;;;5015802;28;20694;-83
2021/07/25 02:22:37;;;;;;;16.67;13.67;;;18.90;87.00;;;;;;5017537;28;20295;-82
2021/07/25 02:25:07;;;;;;;16.13;13.87;;;18.90;87.10;;;;;;4995922;28;20214;-83
2021/07/25 02:27:36;;;;;;;17.20;14.30;;;18.90;86.90;;;;;;5009917;28;20214;-82
2021/07/25 02:30:05;;;;;;;16.57;14.00;;;18.90;87.00;;;;;;5017332;28;20184;-82
2021/07/25 02:32:34;;;;;;;17.47;14.10;;;18.80;87.60;;;;;;5013002;28;20203;-82
2021/07/25 02:35:03;;;;;;;15.43;13.83;;;18.70;87.80;;;;;;5020099;28;20203;-85
2021/07/25 02:37:31;;;;;;;15.53;13.83;;;18.70;87.80;;;;;;5023188;28;20227;-83
2021/07/25 02:40:02;;;;;;;19.00;14.67;;;18.60;88.30;;;;;;5023988;28;20203;-83
2021/07/25 02:42:30;;;;;;;16.53;14.77;;;18.50;88.40;;;;;;5017835;28;20423;-84
2021/07/25 02:45:00;;;;;;;18.60;14.13;;;18.40;88.90;;;;;;5010613;28;20192;-87
2021/07/25 02:47:29;;;;;;;16.13;13.50;;;18.30;89.10;;;;;;5012811;28;20223;-84
2021/07/25 02:49:57;;;;;;;18.80;14.60;;;18.30;89.70;;;;;;5014834;28;20309;-82
2021/07/25 02:52:26;;;;;;;15.30;13.70;;;18.20;90.00;;;;;;5008968;28;20226;-83
2021/07/25 02:54:55;;;;;;;15.83;14.27;;;18.10;90.00;;;;;;5005016;28;20231;-81
2021/07/25 02:57:25;;;;;;;15.80;14.20;;;18.10;90.20;;;;;;5011271;28;20274;-82
2021/07/25 02:59:54;;;;;;;16.27;14.43;;;18.00;90.40;;;;;;5028037;28;20203;-84
2021/07/25 03:02:22;;;;;;;17.80;15.07;;;17.90;90.80;;;;;;5012096;28;20200;-85
2021/07/25 03:04:52;;;;;;;16.37;14.67;;;17.80;91.10;;;;;;5014245;28;20235;-81
2021/07/25 03:07:21;;;;;;;15.40;13.90;;;17.70;91.20;;;;;;5011302;28;20255;-81
2021/07/25 03:09:49;;;;;;;17.53;14.20;;;17.70;91.20;;;;;;5015078;28;20202;-83
2021/07/25 03:12:18;;;;;;;18.23;14.47;;;17.70;91.30;;;;;;5021733;28;20195;-82
2021/07/25 03:14:48;;;;;;;17.63;14.50;;;17.60;91.40;;;;;;5017395;28;20200;-84
2021/07/25 03:17:17;;;;;;;19.40;15.07;;;17.70;91.60;;;;;;5022436;28;20199;-81
2021/07/25 03:19:46;;;;;;;16.60;14.87;;;17.80;91.60;;;;;;5019147;28;20246;-82
2021/07/25 03:22:15;;;;;;;16.90;14.63;;;17.70;91.70;;;;;;5014773;28;20219;-84
2021/07/25 03:24:43;;;;;;;16.60;14.90;;;17.80;91.80;;;;;;5015490;28;20933;-84
2021/07/25 03:27:12;;;;;;;16.87;14.10;;;17.70;91.80;;;;;;5011130;28;20191;-82
2021/07/25 03:29:41;;;;;;;17.63;15.07;;;17.70;91.90;;;;;;5008492;28;20235;-85
2021/07/25 03:32:12;;;;;;;18.30;14.90;;;17.80;91.90;;;;;;5009625;28;20265;-84
2021/07/25 03:34:41;;;;;;;17.83;14.60;;;17.80;91.80;;;;;;5008043;28;20226;-81
2021/07/25 03:37:09;;;;;;;17.20;15.37;;;17.80;92.00;;;;;;5013690;28;20198;-85
2021/07/25 03:39:38;;;;;;;16.87;14.90;;;17.80;92.00;;;;;;5030752;28;20732;-80
2021/07/25 03:42:07;;;;;;;16.57;14.90;;;17.80;92.20;;;;;;5030973;28;20191;-81
2021/07/25 03:44:35;;;;;;;16.10;14.20;;;17.80;92.20;;;;;;5039787;28;20191;-83
2021/07/25 03:47:05;;;;;;;18.07;15.10;;;17.80;92.20;;;;;;5035519;28;20531;-83
2021/07/25 03:49:35;;;;;;;17.23;15.37;;;17.80;92.40;;;;;;5014640;28;20325;-84
2021/07/25 03:52:04;;;;;;;17.10;15.33;;;17.90;92.60;;;;;;5029798;28;20211;-82
2021/07/25 03:54:34;;;;;;;18.47;15.57;;;17.90;92.70;;;;;;5031261;28;20202;-81
2021/07/25 03:57:03;;;;;;;19.53;16.07;;;17.90;92.80;;;;;;5028232;28;20203;-81
2021/07/25 03:59:31;;;;;;;15.57;14.00;;;18.00;92.70;;;;;;5032924;28;20218;-83
2021/07/25 04:02:00;;;;;;;16.40;14.77;;;18.10;92.60;;;;;;5036876;28;20196;-84
2021/07/25 04:04:29;;;;;;;16.30;14.60;;;18.10;92.50;;;;;;5033523;28;20191;-84
2021/07/25 04:06:59;;;;;;;19.33;15.33;;;18.10;92.50;;;;;;5041398;28;20294;-85
2021/07/25 04:09:28;;;;;;;16.40;14.33;;;18.20;92.50;;;;;;5026257;28;20257;-81
2021/07/25 04:11:57;;;;;;;18.43;15.20;;;18.20;92.50;;;;;;5015036;28;20998;-86
2021/07/25 04:14:25;;;;;;;17.33;15.43;;;18.30;92.20;;;;;;5019096;28;20238;-86
2021/07/25 04:16:54;;;;;;;17.07;14.60;;;18.40;91.80;;;;;;5022365;28;20191;-81
2021/07/25 04:19:23;;;;;;;16.97;15.07;;;18.50;91.80;;;;;;5035066;28;20215;-83
2021/07/25 04:21:52;;;;;;;16.77;14.97;;;18.70;91.60;;;;;;5028098;28;20233;-82
2021/07/25 04:24:22;;;;;;;17.00;15.20;;;18.80;91.30;;;;;;5028505;28;20206;-81
2021/07/25 04:26:51;;;;;;;17.10;15.30;;;18.90;90.90;;;;;;5010077;28;20207;-84
2021/07/25 04:29:21;;;;;;;17.70;15.07;;;19.00;90.80;;;;;;5013042;28;20226;-83
2021/07/25 04:31:50;;;;;;;16.17;14.57;;;19.10;90.80;;;;;;5013797;28;20728;-83
2021/07/25 04:34:19;;;;;;;17.13;15.23;;;19.10;90.80;;;;;;5019541;28;20727;-83
2021/07/25 04:36:49;;;;;;;16.70;14.40;;;19.10;90.90;;;;;;5016843;28;20192;-84
2021/07/25 04:39:18;;;;;;;19.40;14.83;;;19.10;91.00;;;;;;5009978;28;20241;-83
2021/07/25 04:41:53;;;;;;;17.17;15.37;;;19.10;90.90;;;;;;5003189;28;20934;-84
2021/07/25 04:44:27;;;;;;;16.73;14.33;;;19.20;90.70;;;;;;5021128;28;20290;-85
2021/07/25 04:47:03;;;;;;;15.43;13.83;;;19.30;90.90;;;;;;5001879;28;20229;-85
2021/07/25 04:49:37;;;;;;;15.83;14.23;;;19.50;90.80;;;;;;5018601;28;20209;-83
2021/07/25 04:52:15;;;;;;;16.93;14.80;;;19.60;90.50;;;;;;5037087;28;20191;-84
2021/07/25 04:54:47;;;;;;;16.23;14.40;;;19.80;90.30;;;;;;5032659;28;20831;-84
2021/07/25 04:57:20;;;;;;;14.63;13.13;;;20.00;90.00;;;;;;5019732;28;20202;-81
2021/07/25 04:59:51;;;;;;;15.80;13.43;;;20.20;89.90;;;;;;5023987;28;20250;-82
2021/07/25 05:02:23;;;;;;;18.90;14.77;;;20.30;90.00;;;;;;5018461;28;20211;-84
2021/07/25 05:04:54;;;;;;;17.77;13.37;;;20.50;89.70;;;;;;5024261;28;20254;-81
2021/07/25 05:07:23;;;;;;;16.20;13.90;;;20.70;89.20;;;;;;5030453;28;20192;-81
2021/07/25 05:09:52;;;;;;;15.03;13.47;;;20.80;88.80;;;;;;5012498;28;20206;-86
2021/07/25 05:12:32;;;;;;;15.30;13.70;;;20.70;89.10;;;;;;5033774;28;20208;-84
2021/07/25 05:15:05;;;;;;;14.37;12.97;;;20.80;88.60;;;;;;5030444;28;20204;-83
2021/07/25 05:17:41;;;;;;;14.33;12.70;;;21.00;88.50;;;;;;5013251;28;20255;-83
2021/07/25 05:20:15;;;;;;;14.23;12.83;;;21.10;88.40;;;;;;5006538;28;20309;-83
2021/07/25 05:22:52;;;;;;;15.00;13.47;;;21.20;88.30;;;;;;5011101;28;20299;-86
2021/07/25 05:25:23;;;;;;;14.57;13.15;;;21.30;87.90;;;;;;5007163;28;20206;-83
2021/07/25 05:27:56;;;;;;;14.48;12.93;;;21.30;88.00;;;;;;5005806;28;20203;-83
2021/07/25 05:30:26;;;;;;;14.93;13.43;;;21.40;88.20;;;;;;4987731;28;20199;-82
2021/07/25 05:32:56;;;;;;;14.40;12.50;;;21.50;87.60;;;;;;5004245;28;20263;-84
2021/07/25 05:35:27;;;;;;;14.20;12.73;;;21.50;87.40;;;;;;5007232;28;20207;-83
2021/07/25 05:37:55;;;;;;;14.53;13.00;;;21.60;87.90;;;;;;5010529;28;20235;-83
2021/07/25 05:40:24;;;;;;;14.80;12.77;;;21.80;87.70;;;;;;5014558;28;20642;-83
2021/07/25 05:42:54;;;;;;;14.13;12.63;;;21.90;87.00;;;;;;5015166;28;20198;-83
2021/07/25 05:45:23;;;;;;;15.70;14.07;;;22.10;86.90;;;;;;5011940;28;20229;-82
2021/07/25 05:47:51;;;;;;;13.65;12.25;;;22.20;87.00;;;;;;5006054;28;20246;-82
2021/07/25 05:50:21;;;;;;;14.50;12.68;;;22.30;86.70;;;;;;5008272;28;20226;-83
2021/07/25 05:52:52;;;;;;;15.38;12.95;;;22.40;86.70;;;;;;5007209;28;20222;-83
2021/07/25 05:55:22;;;;;;;13.70;12.25;;;22.40;86.50;;;;;;5007369;28;20249;-83
2021/07/25 05:57:50;;;;;;;13.80;12.50;;;22.50;86.50;;;;;;4987932;28;20214;-82
2021/07/25 06:00:21;;;;;;;14.73;12.18;;;22.60;86.50;;;;;;5002983;28;20292;-82
2021/07/25 06:02:56;;;;;;;14.18;12.40;;;22.70;86.40;;;;;;5007296;28;20415;-84
2021/07/25 06:05:26;;;;;;;13.75;12.43;;;22.90;86.20;;;;;;5017501;28;20195;-84
2021/07/25 06:07:55;;;;;;;14.80;13.00;;;23.00;85.70;;;;;;5027628;28;20191;-85
2021/07/25 06:10:27;;;;;;;13.52;12.10;;;23.20;85.70;;;;;;5023441;28;20206;-83
2021/07/25 06:12:57;;;;;;;13.88;12.45;;;23.20;85.70;;;;;;5005280;28;20282;-82
2021/07/25 06:15:28;;;;;;;14.30;12.80;;;23.20;85.10;;;;;;5006794;28;20196;-82
2021/07/25 06:18:00;;;;;;;13.25;11.95;;;23.20;85.00;;;;;;5014427;28;20303;-83
2021/07/25 06:20:29;;;;;;;14.38;12.90;;;23.30;85.20;;;;;;5013369;28;20231;-81
2021/07/25 06:22:59;;;;;;;13.73;12.25;;;23.40;85.10;;;;;;5009369;28;20276;-83
2021/07/25 06:25:29;;;;;;;15.10;12.88;;;23.60;84.80;;;;;;5010609;28;20235;-83
2021/07/25 06:28:00;;;;;;;13.48;12.18;;;23.60;84.80;;;;;;5026395;28;20207;-83
2021/07/25 06:30:31;;;;;;;14.15;12.63;;;23.70;84.70;;;;;;5034871;28;20266;-83
2021/07/25 06:33:01;;;;;;;13.45;12.13;;;23.70;84.80;;;;;;5021969;28;20203;-83
2021/07/25 06:35:32;;;;;;;14.95;13.02;;;23.80;84.90;;;;;;4999019;28;20215;-83
2021/07/25 06:38:03;;;;;;;14.20;12.75;;;23.80;84.80;;;;;;5002227;28;20204;-82
2021/07/25 06:40:32;;;;;;;14.43;12.95;;;23.90;84.70;;;;;;5003246;28;20778;-83
2021/07/25 06:43:02;;;;;;;14.05;12.55;;;24.00;85.00;;;;;;5004542;28;20203;-84
2021/07/25 06:45:33;;;;;;;13.18;11.93;;;24.00;84.40;;;;;;5001680;28;20203;-83
2021/07/25 06:48:03;;;;;;;13.27;12.07;;;24.00;84.60;;;;;;5002785;28;20211;-83
2021/07/25 06:50:33;;;;;;;13.98;12.57;;;24.00;84.40;;;;;;5006924;28;20195;-83
2021/07/25 06:53:01;;;;;;;13.77;12.30;;;24.00;84.30;;;;;;5004596;28;20208;-83
2021/07/25 06:55:31;;;;;;;14.63;13.18;;;24.10;84.40;;;;;;5003674;28;20254;-86
2021/07/25 06:57:59;;;;;;;13.30;11.93;;;24.20;84.60;;;;;;5003892;28;20211;-85
2021/07/25 07:00:28;;;;;;;13.18;11.98;;;24.20;84.30;;;;;;5007469;28;20230;-81
2021/07/25 07:02:58;;;;;;;14.68;13.25;;;24.30;84.60;;;;;;5008801;28;20670;-83
2021/07/25 07:05:29;;;;;;;13.45;11.75;;;24.40;84.30;;;;;;5004060;28;20279;-82
2021/07/25 07:08:00;;;;;;;13.50;12.10;;;24.40;84.40;;;;;;5004216;28;20689;-82
2021/07/25 07:10:31;;;;;;;14.70;12.40;;;24.50;84.40;;;;;;5010830;28;20206;-83
2021/07/25 07:13:03;;;;;;;13.88;12.25;;;24.40;84.10;;;;;;4986837;28;20245;-82
2021/07/25 07:15:32;;;;;;;13.40;12.00;;;24.50;84.30;;;;;;5009741;28;20200;-82
2021/07/25 07:18:03;;;;;;;12.60;11.43;;;24.50;83.90;;;;;;5010264;28;20199;-82
2021/07/25 07:20:32;;;;;;;12.85;11.43;;;24.60;84.00;;;;;;5008468;28;20219;-82
2021/07/25 07:23:03;;;;;;;12.77;11.38;;;24.70;83.90;;;;;;5032855;28;20194;-82
2021/07/25 07:25:34;;;;;;;12.20;10.77;;;24.70;83.80;;;;;;5018368;28;20729;-81
2021/07/25 07:28:04;;;;;;;12.50;11.20;;;25.00;83.80;;;;;;5005031;28;20293;-82
2021/07/25 07:30:33;;;;;;;13.25;11.55;;;25.20;83.20;;;;;;5006790;28;20203;-82
2021/07/25 07:33:11;;;;;;;11.75;10.60;;;25.30;83.00;;;;;;5019330;28;20213;-81
2021/07/25 07:35:40;;;;;;;12.20;11.02;;;25.50;83.10;;;;;;5022234;28;20226;-83
2021/07/25 07:38:10;;;;;;;12.15;10.95;;;25.60;82.70;;;;;;5013875;28;20204;-81
2021/07/25 07:40:41;;;;;;;12.85;11.65;;;25.60;82.80;;;;;;5013668;28;20223;-83
2021/07/25 07:43:11;;;;;;;12.77;11.18;;;25.70;82.60;;;;;;5009336;28;20203;-81
2021/07/25 07:45:41;;;;;;;13.30;11.05;;;25.80;82.50;;;;;;5013044;28;20713;-82
2021/07/25 07:48:12;;;;;;;12.18;10.98;;;26.00;82.60;;;;;;5009266;28;20210;-82
2021/07/25 07:50:43;;;;;;;12.52;10.45;;;26.10;82.20;;;;;;5009909;28;20211;-82
2021/07/25 07:53:13;;;;;;;12.55;9.95;;;26.10;82.30;;;;;;5012826;28;20391;-82
2021/07/25 07:55:41;;;;;;;12.02;10.93;;;26.20;82.40;;;;;;5009199;28;20761;-83
2021/07/25 07:58:10;;;;;;;12.20;11.00;;;26.30;82.00;;;;;;5010010;28;20633;-83
2021/07/25 08:00:38;;;;;;;12.18;10.98;;;26.40;82.00;;;;;;5018241;28;20234;-82
2021/07/25 08:03:07;;;;;;;11.40;10.40;;;26.50;81.70;;;;;;5009025;28;20283;-85
2021/07/25 08:05:37;;;;;;;11.43;10.20;;;26.50;81.50;;;;;;5006782;28;20198;-82
2021/07/25 08:08:06;;;;;;;11.05;10.02;;;26.60;82.10;;;;;;5016557;28;20210;-81
2021/07/25 08:10:38;;;;;;;11.02;9.93;;;26.70;81.70;;;;;;5020601;28;20291;-83
2021/07/25 08:13:07;;;;;;;11.57;9.98;;;26.70;81.70;;;;;;5026366;28;21158;-82
2021/07/25 08:15:36;;;;;;;11.15;10.02;;;26.70;81.80;;;;;;5017886;28;20203;-82
2021/07/25 08:18:08;;;;;;;10.73;9.70;;;26.70;81.60;;;;;;5016449;28;20576;-84
2021/07/25 08:20:38;;;;;;;10.88;9.73;;;26.80;81.40;;;;;;5007481;28;20227;-85
2021/07/25 08:23:06;;;;;;;10.70;9.65;;;26.90;81.10;;;;;;5005242;28;21510;-83
2021/07/25 08:25:35;;;;;;;11.00;10.00;;;26.90;81.20;;;;;;5010638;28;20580;-82
2021/07/25 08:28:04;;;;;;;11.05;9.30;;;27.00;80.80;;;;;;5025281;28;20195;-82
2021/07/25 08:30:36;;;;;;;10.05;9.15;;;27.00;80.70;;;;;;5014483;28;20206;-84
2021/07/25 08:33:05;;;;;;;10.23;9.32;;;27.00;80.50;;;;;;5006163;28;20229;-81
2021/07/25 08:35:36;;;;;;;10.20;9.20;;;27.10;80.60;;;;;;5002391;28;20202;-84
2021/07/25 08:38:06;;;;;;;9.95;9.05;;;27.20;80.70;;;;;;5004592;28;20231;-84
2021/07/25 08:40:35;;;;;;;11.00;9.60;;;27.30;80.50;;;;;;5010878;28;20961;-81
2021/07/25 08:43:06;;;;;;;9.68;8.57;;;27.40;80.40;;;;;;5008968;28;20280;-80
2021/07/25 08:45:37;;;;;;;10.27;9.25;;;27.40;79.70;;;;;;5008050;28;20203;-82
2021/07/25 08:48:13;;;;;;;9.85;9.05;;;27.50;80.70;;;;;;5006233;28;20207;-83
2021/07/25 08:50:45;;;;;;;9.80;8.90;;;27.60;79.80;;;;;;5007646;28;20196;-83
2021/07/25 08:53:16;;;;;;;10.07;8.73;;;27.60;80.30;;;;;;5006853;28;20306;-83
2021/07/25 08:55:46;;;;;;;9.18;8.27;;;27.60;79.80;;;;;;5011121;28;20260;-82
2021/07/25 08:58:18;;;;;;;9.43;8.48;;;27.70;79.80;;;;;;5003231;28;20223;-84
2021/07/25 09:00:50;;;;;;;9.73;8.77;;;27.80;79.90;;;;;;5014560;28;20211;-83
2021/07/25 09:03:20;;;;;;;9.15;8.27;;;27.90;79.80;;;;;;5017472;28;20935;-82
2021/07/25 09:05:51;;;;;;;10.00;9.00;;;27.80;79.30;;;;;;5003309;28;20210;-83
2021/07/25 09:08:23;;;;;;;9.57;8.68;;;27.80;79.90;;;;;;5004797;28;20200;-83
2021/07/25 09:10:55;;;;;;;10.00;8.63;;;27.90;79.70;;;;;;4984882;28;20241;-85
2021/07/25 09:13:24;;;;;;;9.70;8.25;;;28.00;79.60;;;;;;5001102;28;20206;-82
2021/07/25 09:15:53;;;;;;;9.52;8.63;;;28.00;79.30;;;;;;5006008;28;20217;-84
2021/07/25 09:18:21;;;;;;;9.80;8.80;;;27.80;79.60;;;;;;5005105;28;20473;-82
2021/07/25 09:20:53;;;;;;;9.52;8.38;;;27.90;80.10;;;;;;5003254;28;20232;-81
2021/07/25 09:23:22;;;;;;;9.40;8.65;;;28.10;80.20;;;;;;5003652;28;20200;-84
2021/07/25 09:25:53;;;;;;;9.73;8.77;;;28.30;80.30;;;;;;5008319;28;20419;-85
2021/07/25 09:28:33;;;;;;;9.23;8.32;;;28.40;79.50;;;;;;5005615;28;20616;-82
2021/07/25 09:31:14;;;;;;;9.48;8.57;;;28.50;79.80;;;;;;5011005;28;20223;-82
2021/07/25 09:33:44;;;;;;;8.90;8.07;;;28.60;79.40;;;;;;5031753;28;20278;-81
2021/07/25 09:36:18;;;;;;;9.05;8.15;;;28.70;79.00;;;;;;5016850;28;20191;-81
2021/07/25 09:38:49;;;;;;;9.95;8.63;;;28.70;78.60;;;;;;5025907;28;20210;-81
2021/07/25 09:41:23;;;;;;;9.80;8.48;;;28.70;78.60;;;;;;5022820;28;20218;-82
2021/07/25 09:44:04;;;;;;;9.00;8.20;;;28.70;78.00;;;;;;5035708;28;20212;-82
2021/07/25 09:46:50;;;;;;;8.80;8.10;;;28.70;77.70;;;;;;5034104;28;20195;-82
2021/07/25 09:49:19;;;;;;;9.48;8.10;;;28.60;78.20;;;;;;5035797;28;20206;-83
2021/07/25 09:51:50;;;;;;;9.48;8.57;;;28.60;77.70;;;;;;5036351;28;20210;-82
2021/07/25 09:54:25;;;;;;;9.10;8.20;;;28.50;77.40;;;;;;5030826;28;20180;-84
2021/07/25 09:57:10;;;;;;;10.07;8.15;;;28.30;77.60;;;;;;5036186;28;20186;-83
2021/07/25 09:59:39;;;;;;;8.85;8.13;;;28.20;78.00;;;;;;5038525;28;20252;-83
2021/07/25 10:02:33;;;;;;;9.13;8.25;;;28.30;78.00;;;;;;5035572;28;20211;-83
2021/07/25 10:05:14;;;;;;;9.07;8.23;;;28.40;78.70;;;;;;5037230;28;20198;-83
2021/07/25 10:07:46;;;;;;;9.65;8.57;;;28.60;78.50;;;;;;5037846;28;20175;-81
2021/07/25 10:10:16;;;;;;;9.80;8.82;;;28.60;77.30;;;;;;5037720;28;20210;-84
2021/07/25 10:12:46;;;;;;;9.48;8.52;;;28.70;77.70;;;;;;5042839;28;20206;-83
2021/07/25 10:15:17;;;;;;;10.10;9.07;;;28.70;77.50;;;;;;5044578;28;20218;-83
2021/07/25 10:17:48;;;;;;;9.32;8.52;;;28.60;77.00;;;;;;5038611;28;20487;-82
2021/07/25 10:20:17;;;;;;;9.32;8.45;;;28.70;76.90;;;;;;5038692;28;20328;-83
2021/07/25 10:22:51;;;;;;;9.30;8.27;;;28.80;76.50;;;;;;5043432;28;20222;-82
2021/07/25 10:25:23;;;;;;;9.30;8.15;;;28.80;77.10;;;;;;5039502;28;20254;-84
2021/07/25 10:27:53;;;;;;;9.45;8.30;;;29.00;77.00;;;;;;5044628;28;20254;-84
2021/07/25 10:30:23;;;;;;;9.00;8.20;;;29.00;76.60;;;;;;5042590;28;20190;-82
2021/07/25 10:32:55;;;;;;;9.15;8.25;;;29.00;76.30;;;;;;5023414;28;20222;-82
2021/07/25 10:35:26;;;;;;;9.40;8.15;;;29.00;76.20;;;;;;5019351;28;20202;-80
2021/07/25 10:37:56;;;;;;;9.57;8.68;;;29.00;77.00;;;;;;5034295;28;20217;-79
2021/07/25 10:40:25;;;;;;;9.25;8.32;;;28.80;76.50;;;;;;5036187;28;20284;-83
2021/07/25 10:42:54;;;;;;;8.90;8.07;;;28.50;76.90;;;;;;5023557;28;20227;-82
2021/07/25 10:45:23;;;;;;;10.65;8.57;;;28.60;77.10;;;;;;5030100;28;20195;-83
2021/07/25 10:47:52;;;;;;;9.15;8.35;;;28.80;77.50;;;;;;5028816;28;20238;-81
2021/07/25 10:50:22;;;;;;;9.82;8.93;;;29.10;77.30;;;;;;5022098;28;20215;-82
2021/07/25 10:53:03;;;;;;;9.55;8.60;;;29.10;77.30;;;;;;5028561;28;20634;-82
2021/07/25 10:55:47;;;;;;;11.23;9.43;;;29.10;76.60;;;;;;5033690;28;20207;-83
2021/07/25 10:58:18;;;;;;;9.90;9.00;;;28.80;76.70;;;;;;5017858;28;20199;-82
2021/07/25 11:00:50;;;;;;;9.68;8.55;;;28.80;76.50;;;;;;5015804;28;20203;-83
2021/07/25 11:03:46;;;;;;;9.27;8.38;;;29.10;76.30;;;;;;5018468;28;20273;-82
2021/07/25 11:06:19;;;;;;;8.70;7.90;;;29.20;76.50;;;;;;4993752;28;20633;-83
2021/07/25 11:08:53;;;;;;;9.30;8.40;;;29.20;75.20;;;;;;5009089;28;20211;-82
2021/07/25 11:11:57;;;;;;;9.23;8.32;;;29.20;74.40;;;;;;5012754;28;20262;-83
2021/07/25 11:15:05;;;;;;;8.93;8.02;;;29.20;74.20;;;;;;5003999;28;20226;-83
2021/07/25 11:17:48;;;;;;;8.70;7.93;;;29.30;73.80;;;;;;5007821;28;20203;-82
2021/07/25 11:20:38;;;;;;;10.02;8.05;;;29.30;73.40;;;;;;5011254;28;21170;-84
2021/07/25 11:23:12;;;;;;;9.20;8.30;;;29.20;74.00;;;;;;5006894;28;20985;-82
2021/07/25 11:25:42;;;;;;;8.77;7.93;;;29.20;73.80;;;;;;5006764;28;20207;-82
2021/07/25 11:28:11;;;;;;;8.65;7.85;;;29.30;74.40;;;;;;5012214;28;20195;-83
2021/07/25 11:31:05;;;;;;;9.48;7.80;;;29.60;72.40;;;;;;5009034;28;20587;-84
2021/07/25 11:33:53;;;;;;;8.85;8.05;;;29.50;72.10;;;;;;5007488;28;20242;-84
2021/07/25 11:36:24;;;;;;;11.85;8.05;;;29.50;71.70;;;;;;5009731;28;20277;-83
2021/07/25 11:38:55;;;;;;;9.15;8.27;;;29.50;70.40;;;;;;5006915;28;20671;-83
2021/07/25 11:41:27;;;;;;;10.13;8.35;;;29.50;71.30;;;;;;5016981;28;20200;-83
2021/07/25 11:44:00;;;;;;;9.93;8.02;;;29.60;71.50;;;;;;5023348;28;20238;-84
2021/07/25 11:46:38;;;;;;;9.00;8.20;;;29.70;71.90;;;;;;5012797;28;20203;-83
2021/07/25 11:49:15;;;;;;;9.20;8.30;;;29.60;71.70;;;;;;5021544;28;20191;-83
2021/07/25 11:51:52;;;;;;;9.00;8.10;;;29.60;71.10;;;;;;5016362;28;20224;-84
2021/07/25 11:54:23;;;;;;;9.05;8.15;;;29.50;71.40;;;;;;5009807;28;20517;-82
2021/07/25 11:57:01;;;;;;;9.27;8.27;;;29.50;72.00;;;;;;5002116;28;20199;-82
2021/07/25 11:59:31;;;;;;;9.05;8.32;;;29.30;72.30;;;;;;5004032;28;20293;-83
2021/07/25 12:02:00;;;;;;;9.23;8.32;;;29.30;73.40;;;;;;5005303;28;20196;-83
2021/07/25 12:04:33;;;;;;;9.23;8.40;;;29.40;72.30;;;;;;5007697;28;20932;-83
2021/07/25 12:07:09;;;;;;;8.88;8.07;;;29.40;70.60;;;;;;5006285;28;20208;-82
2021/07/25 12:09:38;;;;;;;9.40;8.50;;;29.50;71.50;;;;;;5009651;28;20282;-84
2021/07/25 12:12:14;;;;;;;12.02;8.55;;;29.70;72.30;;;;;;5016719;28;20207;-84
2021/07/25 12:14:45;;;;;;;9.68;8.60;;;29.80;71.80;;;;;;5015195;28;20203;-85
2021/07/25 12:17:14;;;;;;;9.65;8.65;;;29.80;72.30;;;;;;5016162;28;20210;-82
2021/07/25 12:19:44;;;;;;;10.68;7.97;;;30.00;71.80;;;;;;5014920;28;20203;-82
2021/07/25 12:22:19;;;;;;;9.77;8.68;;;30.10;72.20;;;;;;5013046;28;20286;-83
2021/07/25 12:24:51;;;;;;;12.52;8.48;;;30.40;70.90;;;;;;5001586;28;20215;-84
2021/07/25 12:27:34;;;;;;;10.45;8.05;;;30.50;70.20;;;;;;5003898;28;20210;-81
2021/07/25 12:30:17;;;;;;;8.98;7.80;;;30.60;70.40;;;;;;5003944;28;20226;-84
2021/07/25 12:32:46;;;;;;;8.15;7.45;;;30.70;70.00;;;;;;5003379;28;20204;-85
2021/07/25 12:35:23;;;;;;;8.25;7.35;;;30.70;69.80;;;;;;5007543;28;20459;-84
2021/07/25 12:38:00;;;;;;;8.85;7.90;;;30.50;69.60;;;;;;4992732;28;20302;-82
2021/07/25 12:40:30;;;;;;;8.15;7.45;;;30.60;70.20;;;;;;5019034;28;20217;-83
2021/07/25 12:43:06;;;;;;;7.90;7.20;;;30.80;69.20;;;;;;5011386;28;20224;-84
2021/07/25 12:45:43;;;;;;;8.40;7.60;;;30.90;68.70;;;;;;5020026;28;20200;-85
2021/07/25 12:48:37;;;;;;;9.90;7.47;;;31.10;67.00;;;;;;5014022;28;20196;-82
2021/07/25 12:51:19;;;;;;;8.27;7.47;;;31.20;66.90;;;;;;5005871;28;20206;-83
2021/07/25 12:53:56;;;;;;;8.30;7.50;;;31.30;66.80;;;;;;5004916;28;20257;-84
2021/07/25 12:56:26;;;;;;;8.35;7.43;;;31.30;66.50;;;;;;5005324;28;20282;-83